createdAt,value
2017-02-09T04:00:44.814Z,1032.63
2017-02-09T04:01:10.394Z,1032.64
2017-02-09T04:01:35.947Z,1032.64
2017-02-09T04:02:01.581Z,1032.65
2017-02-09T04:02:27.152Z,1032.64
2017-02-09T04:02:52.705Z,1032.63
2017-02-09T04:03:18.253Z,1032.66
2017-02-09T04:03:43.824Z,1032.63
2017-02-09T04:04:09.376Z,1032.6
2017-02-09T04:04:34.931Z,1032.61
2017-02-09T04:05:00.521Z,1032.63
2017-02-09T04:05:26.104Z,1032.65
2017-02-09T04:05:51.658Z,1032.68
2017-02-09T04:06:17.446Z,1032.63
2017-02-09T04:06:43.011Z,1032.66
2017-02-09T04:07:08.634Z,1032.66
2017-02-09T04:07:34.212Z,1032.65
2017-02-09T04:07:59.851Z,1032.59
2017-02-09T04:08:25.537Z,1032.62
2017-02-09T04:08:51.098Z,1032.59
2017-02-09T04:09:16.660Z,1032.61
2017-02-09T04:09:42.222Z,1032.61
2017-02-09T04:10:07.840Z,1032.61
2017-02-09T04:10:33.395Z,1032.65
2017-02-09T04:10:58.987Z,1032.68
2017-02-09T04:11:24.547Z,1032.64
2017-02-09T04:11:50.119Z,1032.65
2017-02-09T04:12:15.694Z,1032.65
2017-02-09T04:12:41.281Z,1032.67
2017-02-09T04:13:06.856Z,1032.68
2017-02-09T04:13:32.426Z,1032.64
2017-02-09T04:13:58.113Z,1032.66
2017-02-09T04:14:23.677Z,1032.65
2017-02-09T04:14:49.345Z,1032.63
2017-02-09T04:15:14.985Z,1032.63
2017-02-09T04:15:40.568Z,1032.63
2017-02-09T04:16:06.122Z,1032.65
2017-02-09T04:16:31.692Z,1032.66
2017-02-09T04:16:57.248Z,1032.7
2017-02-09T04:17:22.817Z,1032.65
2017-02-09T04:17:48.400Z,1032.66
2017-02-09T04:18:13.976Z,1032.66
2017-02-09T04:18:39.532Z,1032.67
2017-02-09T04:19:05.096Z,1032.66
2017-02-09T04:19:30.658Z,1032.63
2017-02-09T04:19:56.237Z,1032.65
2017-02-09T04:20:21.911Z,1032.67
2017-02-09T04:20:47.483Z,1032.62
2017-02-09T04:21:13.064Z,1032.66
2017-02-09T04:21:38.623Z,1032.68
2017-02-09T04:22:04.189Z,1032.71
2017-02-09T04:22:29.738Z,1032.67
2017-02-09T04:22:55.295Z,1032.68
2017-02-09T04:23:20.883Z,1032.67
2017-02-09T04:23:46.454Z,1032.67
2017-02-09T04:24:12.028Z,1032.69
2017-02-09T04:24:37.586Z,1032.68
2017-02-09T04:25:03.172Z,1032.67
2017-02-09T04:25:28.835Z,1032.68
2017-02-09T04:25:54.437Z,1032.64
2017-02-09T04:26:20.002Z,1032.63
2017-02-09T04:26:45.575Z,1032.63
2017-02-09T04:27:11.215Z,1032.63
2017-02-09T04:27:36.770Z,1032.68
2017-02-09T04:28:02.434Z,1032.66
2017-02-09T04:28:28.128Z,1032.63
2017-02-09T04:28:53.690Z,1032.62
2017-02-09T04:29:19.283Z,1032.64
2017-02-09T04:29:44.986Z,1032.64
2017-02-09T04:30:10.555Z,1032.58
2017-02-09T04:30:36.123Z,1032.62
2017-02-09T04:31:01.745Z,1032.65
2017-02-09T04:31:27.343Z,1032.64
2017-02-09T04:31:53.001Z,1032.61
2017-02-09T04:32:18.560Z,1032.61
2017-02-09T04:32:44.106Z,1032.64
2017-02-09T04:33:09.657Z,1032.61
2017-02-09T04:33:35.255Z,1032.63
2017-02-09T04:34:00.934Z,1032.65
2017-02-09T04:34:26.495Z,1032.68
2017-02-09T04:34:52.151Z,1032.6
2017-02-09T04:35:17.777Z,1032.61
2017-02-09T04:35:43.345Z,1032.62
2017-02-09T04:36:08.925Z,1032.61
2017-02-09T04:36:34.555Z,1032.6
2017-02-09T04:37:00.181Z,1032.63
2017-02-09T04:37:25.739Z,1032.58
2017-02-09T04:37:51.318Z,1032.58
2017-02-09T04:38:16.873Z,1032.63
2017-02-09T04:38:42.422Z,1032.59
2017-02-09T04:39:07.985Z,1032.59
2017-02-09T04:39:33.572Z,1032.63
2017-02-09T04:39:59.126Z,1032.58
2017-02-09T04:40:24.704Z,1032.63
2017-02-09T04:40:50.278Z,1032.64
2017-02-09T04:41:15.834Z,1032.63
2017-02-09T04:41:41.453Z,1032.62
2017-02-09T04:42:07.176Z,1032.61
2017-02-09T04:42:32.732Z,1032.6
2017-02-09T04:43:46.582Z,1032.6
2017-02-09T04:44:12.306Z,1032.6
2017-02-09T04:44:37.864Z,1032.62
2017-02-09T04:45:03.455Z,1032.6
2017-02-09T04:45:29.014Z,1032.64
2017-02-09T04:45:54.575Z,1032.66
2017-02-09T04:46:20.203Z,1032.68
2017-02-09T04:46:45.773Z,1032.64
2017-02-09T04:47:11.336Z,1032.65
2017-02-09T04:47:36.891Z,1032.65
2017-02-09T04:48:02.549Z,1032.67
2017-02-09T04:48:28.154Z,1032.65
2017-02-09T04:48:53.696Z,1032.68
2017-02-09T04:49:19.434Z,1032.68
2017-02-09T04:49:44.953Z,1032.67
2017-02-09T04:50:10.514Z,1032.64
2017-02-09T04:50:36.067Z,1032.65
2017-02-09T04:51:01.653Z,1032.66
2017-02-09T04:51:27.298Z,1032.64
2017-02-09T04:51:52.865Z,1032.63
2017-02-09T04:52:18.433Z,1032.65
2017-02-09T04:52:43.984Z,1032.65
2017-02-09T04:53:09.585Z,1032.69
2017-02-09T04:53:35.189Z,1032.68
2017-02-09T04:54:00.768Z,1032.66
2017-02-09T04:54:26.325Z,1032.67
2017-02-09T04:54:51.878Z,1032.66
2017-02-09T04:55:17.432Z,1032.68
2017-02-09T04:55:42.982Z,1032.68
2017-02-09T04:56:08.593Z,1032.7
2017-02-09T04:56:34.165Z,1032.69
2017-02-09T04:56:59.728Z,1032.68
2017-02-09T04:57:25.400Z,1032.72
2017-02-09T04:57:50.957Z,1032.68
2017-02-09T04:58:16.553Z,1032.67
2017-02-09T04:58:42.142Z,1032.69
2017-02-09T04:59:07.781Z,1032.69
2017-02-09T04:59:33.371Z,1032.65
2017-02-09T04:59:58.948Z,1032.66
2017-02-09T05:00:24.518Z,1032.68
2017-02-09T05:00:50.146Z,1032.67
2017-02-09T05:01:15.748Z,1032.7
2017-02-09T05:01:41.306Z,1032.65
2017-02-09T05:02:06.866Z,1032.68
2017-02-09T05:02:32.522Z,1032.7
2017-02-09T05:02:58.082Z,1032.71
2017-02-09T05:03:23.685Z,1032.69
2017-02-09T05:03:49.265Z,1032.72
2017-02-09T05:04:14.944Z,1032.69
2017-02-09T05:04:40.511Z,1032.72
2017-02-09T05:05:06.067Z,1032.66
2017-02-09T05:05:31.615Z,1032.69
2017-02-09T05:05:57.174Z,1032.68
2017-02-09T05:06:22.774Z,1032.67
2017-02-09T05:06:48.381Z,1032.68
2017-02-09T05:07:13.941Z,1032.67
2017-02-09T05:07:39.524Z,1032.68
2017-02-09T05:08:05.079Z,1032.63
2017-02-09T05:08:30.636Z,1032.64
2017-02-09T05:08:56.201Z,1032.68
2017-02-09T05:09:21.839Z,1032.62
2017-02-09T05:09:47.409Z,1032.65
2017-02-09T05:10:12.969Z,1032.67
2017-02-09T05:10:38.751Z,1032.65
2017-02-09T05:11:04.411Z,1032.65
2017-02-09T05:11:29.946Z,1032.64
2017-02-09T05:11:55.612Z,1032.7
2017-02-09T05:12:21.170Z,1032.67
2017-02-09T05:12:46.723Z,1032.65
2017-02-09T05:13:12.290Z,1032.65
2017-02-09T05:13:37.871Z,1032.7
2017-02-09T05:14:03.411Z,1032.69
2017-02-09T05:14:28.959Z,1032.66
2017-02-09T05:14:54.517Z,1032.71
2017-02-09T05:15:20.060Z,1032.74
2017-02-09T05:15:46.347Z,1032.72
2017-02-09T05:16:12.010Z,1032.72
2017-02-09T05:16:37.580Z,1032.77
2017-02-09T05:17:03.153Z,1032.77
2017-02-09T05:17:28.847Z,1032.74
2017-02-09T05:17:54.405Z,1032.76
2017-02-09T05:18:20.041Z,1032.76
2017-02-09T05:18:45.602Z,1032.76
2017-02-09T05:19:11.215Z,1032.76
2017-02-09T05:19:36.795Z,1032.76
2017-02-09T05:20:02.344Z,1032.75
2017-02-09T05:20:27.933Z,1032.75
2017-02-09T05:20:53.512Z,1032.73
2017-02-09T05:21:19.082Z,1032.72
2017-02-09T05:21:44.714Z,1032.82
2017-02-09T05:22:10.279Z,1032.76
2017-02-09T05:22:35.925Z,1032.75
2017-02-09T05:23:01.514Z,1032.71
2017-02-09T05:23:27.062Z,1032.79
2017-02-09T05:23:52.750Z,1032.75
2017-02-09T05:24:18.314Z,1032.79
2017-02-09T05:24:43.948Z,1032.77
2017-02-09T05:25:09.488Z,1032.73
2017-02-09T05:25:35.049Z,1032.73
2017-02-09T05:26:00.593Z,1032.8
2017-02-09T05:26:26.133Z,1032.74
2017-02-09T05:26:51.682Z,1032.76
2017-02-09T05:27:17.220Z,1032.75
2017-02-09T05:27:42.787Z,1032.75
2017-02-09T05:28:08.356Z,1032.72
2017-02-09T05:28:33.907Z,1032.75
2017-02-09T05:28:59.626Z,1032.71
2017-02-09T05:29:25.196Z,1032.77
2017-02-09T05:29:50.762Z,1032.76
2017-02-09T05:30:16.330Z,1032.76
2017-02-09T05:30:42.036Z,1032.76
2017-02-09T05:31:07.589Z,1032.73
2017-02-09T05:31:33.152Z,1032.79
2017-02-09T05:31:58.844Z,1032.74
2017-02-09T05:32:24.434Z,1032.79
2017-02-09T05:32:50.001Z,1032.78
2017-02-09T05:33:15.636Z,1032.83
2017-02-09T05:33:41.274Z,1032.79
2017-02-09T05:34:06.834Z,1032.85
2017-02-09T05:34:32.458Z,1032.84
2017-02-09T05:34:58.019Z,1032.79
2017-02-09T05:35:23.593Z,1032.82
2017-02-09T05:35:49.247Z,1032.79
2017-02-09T05:36:14.815Z,1032.85
2017-02-09T05:36:40.365Z,1032.85
2017-02-09T05:37:06.844Z,1032.89
2017-02-09T05:37:32.402Z,1032.84
2017-02-09T05:38:30.863Z,1032.93
2017-02-09T05:38:56.457Z,1032.84
2017-02-09T05:39:22.035Z,1032.88
2017-02-09T05:39:47.576Z,1032.88
2017-02-09T05:40:13.163Z,1032.88
2017-02-09T05:40:38.732Z,1032.88
2017-02-09T05:41:04.306Z,1032.86
2017-02-09T05:41:29.879Z,1032.89
2017-02-09T05:41:55.984Z,1032.86
2017-02-09T05:42:21.033Z,1032.87
2017-02-09T05:42:46.594Z,1032.86
2017-02-09T05:43:12.258Z,1032.9
2017-02-09T05:43:37.832Z,1032.87
2017-02-09T05:44:03.382Z,1032.83
2017-02-09T05:44:28.942Z,1032.84
2017-02-09T05:44:54.499Z,1032.86
2017-02-09T05:45:20.059Z,1032.84
2017-02-09T05:45:45.641Z,1032.83
2017-02-09T05:46:11.237Z,1032.84
2017-02-09T05:46:36.792Z,1032.85
2017-02-09T05:47:02.461Z,1032.82
2017-02-09T05:47:28.085Z,1032.8
2017-02-09T05:47:53.645Z,1032.84
2017-02-09T05:48:19.250Z,1032.84
2017-02-09T05:48:44.910Z,1032.85
2017-02-09T05:49:10.495Z,1032.87
2017-02-09T05:49:36.091Z,1032.87
2017-02-09T05:50:01.723Z,1032.86
2017-02-09T05:50:27.294Z,1032.84
2017-02-09T05:50:52.840Z,1032.88
2017-02-09T05:51:18.421Z,1032.92
2017-02-09T05:51:44.004Z,1032.88
2017-02-09T05:52:09.568Z,1032.88
2017-02-09T05:52:35.138Z,1032.82
2017-02-09T05:53:00.855Z,1032.85
2017-02-09T05:53:26.430Z,1032.88
2017-02-09T05:53:52.020Z,1032.91
2017-02-09T05:54:17.683Z,1032.88
2017-02-09T05:54:43.271Z,1032.83
2017-02-09T05:55:08.839Z,1032.86
2017-02-09T05:55:34.389Z,1032.88
2017-02-09T05:55:59.963Z,1032.89
2017-02-09T05:56:25.509Z,1032.84
2017-02-09T05:56:51.047Z,1032.89
2017-02-09T05:57:16.606Z,1032.87
2017-02-09T05:57:42.176Z,1032.86
2017-02-09T05:58:07.843Z,1032.94
2017-02-09T05:58:33.406Z,1032.86
2017-02-09T05:58:58.953Z,1032.93
2017-02-09T05:59:24.511Z,1032.91
2017-02-09T05:59:50.072Z,1032.87
2017-02-09T06:00:15.693Z,1032.86
2017-02-09T06:00:41.255Z,1032.86
2017-02-09T06:01:06.799Z,1032.89
2017-02-09T06:01:32.462Z,1032.89
2017-02-09T06:01:58.024Z,1032.93
2017-02-09T06:02:23.572Z,1032.91
2017-02-09T06:02:49.162Z,1032.92
2017-02-09T06:03:14.727Z,1032.89
2017-02-09T06:03:40.287Z,1032.91
2017-02-09T06:04:05.873Z,1032.93
2017-02-09T06:04:31.439Z,1032.93
2017-02-09T06:04:56.989Z,1032.98
2017-02-09T06:05:22.551Z,1032.95
2017-02-09T06:05:48.114Z,1032.95
2017-02-09T06:06:13.670Z,1032.98
2017-02-09T06:06:39.246Z,1032.95
2017-02-09T06:07:04.794Z,1032.95
2017-02-09T06:07:30.364Z,1033.01
2017-02-09T06:07:55.942Z,1032.98
2017-02-09T06:08:21.502Z,1033.02
2017-02-09T06:08:47.058Z,1033.01
2017-02-09T06:09:12.623Z,1032.99
2017-02-09T06:09:38.185Z,1032.98
2017-02-09T06:10:03.756Z,1033.02
2017-02-09T06:10:29.327Z,1033.02
2017-02-09T06:10:54.898Z,1033.04
2017-02-09T06:11:20.543Z,1033
2017-02-09T06:11:46.111Z,1033
2017-02-09T06:12:11.672Z,1033.05
2017-02-09T06:12:37.242Z,1033.01
2017-02-09T06:13:02.804Z,1033.05
2017-02-09T06:13:28.363Z,1033.04
2017-02-09T06:13:53.922Z,1033.04
2017-02-09T06:14:19.481Z,1033.07
2017-02-09T06:14:45.031Z,1033.04
2017-02-09T06:15:10.582Z,1033.04
2017-02-09T06:15:36.233Z,1033.01
2017-02-09T06:16:01.790Z,1033.06
2017-02-09T06:16:27.331Z,1033.06
2017-02-09T06:16:52.885Z,1033.06
2017-02-09T06:17:18.533Z,1033.07
2017-02-09T06:17:44.103Z,1033.11
2017-02-09T06:18:09.671Z,1033.03
2017-02-09T06:18:35.210Z,1033.02
2017-02-09T06:19:01.722Z,1033.01
2017-02-09T06:19:27.283Z,1033.04
2017-02-09T06:19:52.820Z,1033.04
2017-02-09T06:20:18.414Z,1033.01
2017-02-09T06:20:44.002Z,1033.02
2017-02-09T06:21:09.587Z,1033.04
2017-02-09T06:21:35.154Z,1033.02
2017-02-09T06:22:00.804Z,1033.09
2017-02-09T06:22:26.379Z,1033.08
2017-02-09T06:22:51.971Z,1033.03
2017-02-09T06:23:17.583Z,1033.03
2017-02-09T06:23:43.182Z,1033.01
2017-02-09T06:24:08.740Z,1033.03
2017-02-09T06:24:34.302Z,1033.03
2017-02-09T06:24:59.876Z,1033
2017-02-09T06:25:25.436Z,1032.98
2017-02-09T06:25:50.994Z,1033
2017-02-09T06:26:16.602Z,1032.96
2017-02-09T06:26:42.161Z,1033.04
2017-02-09T06:27:07.716Z,1033.06
2017-02-09T06:27:33.281Z,1033.07
2017-02-09T06:27:58.839Z,1033.1
2017-02-09T06:28:24.385Z,1033.11
2017-02-09T06:28:49.920Z,1033.07
2017-02-09T06:29:15.451Z,1033.07
2017-02-09T06:29:41.007Z,1033.09
2017-02-09T06:30:06.574Z,1033.1
2017-02-09T06:30:32.130Z,1033.12
2017-02-09T06:30:57.682Z,1033.15
2017-02-09T06:31:23.231Z,1033.13
2017-02-09T06:31:48.838Z,1033.16
2017-02-09T06:32:14.385Z,1033.13
2017-02-09T06:32:39.942Z,1033.16
2017-02-09T06:33:05.521Z,1033.16
2017-02-09T06:33:31.105Z,1033.13
2017-02-09T06:33:56.721Z,1033.14
2017-02-09T06:34:22.291Z,1033.14
2017-02-09T06:35:30.931Z,1033.12
2017-02-09T06:35:56.638Z,1033.12
2017-02-09T06:36:22.207Z,1033.13
2017-02-09T06:36:47.759Z,1033.11
2017-02-09T06:37:13.335Z,1033.1
2017-02-09T06:37:38.914Z,1033.09
2017-02-09T06:38:04.458Z,1033.08
2017-02-09T06:38:30.072Z,1033.12
2017-02-09T06:38:55.631Z,1033.09
2017-02-09T06:39:21.198Z,1033.07
2017-02-09T06:39:46.874Z,1033.1
2017-02-09T06:40:12.442Z,1033.11
2017-02-09T06:40:38.114Z,1033.09
2017-02-09T06:41:03.687Z,1033.12
2017-02-09T06:41:29.290Z,1033.09
2017-02-09T06:41:54.855Z,1033.1
2017-02-09T06:42:20.439Z,1033.1
2017-02-09T06:42:46.003Z,1033.11
2017-02-09T06:43:11.579Z,1033.09
2017-02-09T06:43:37.148Z,1033.08
2017-02-09T06:44:02.765Z,1033.1
2017-02-09T06:44:28.330Z,1033.1
2017-02-09T06:44:53.962Z,1033.09
2017-02-09T06:45:19.655Z,1033.09
2017-02-09T06:45:45.225Z,1033.07
2017-02-09T06:46:10.787Z,1033.09
2017-02-09T06:46:36.343Z,1033.07
2017-02-09T06:47:01.908Z,1033.07
2017-02-09T06:47:27.452Z,1033.03
2017-02-09T06:47:53.021Z,1033.06
2017-02-09T06:48:18.570Z,1033.03
2017-02-09T06:48:44.204Z,1033.07
2017-02-09T06:49:09.938Z,1033.04
2017-02-09T06:49:35.394Z,1033.04
2017-02-09T06:50:00.952Z,1033.06
2017-02-09T06:50:26.537Z,1033.03
2017-02-09T06:50:52.095Z,1033.02
2017-02-09T06:51:17.667Z,1033.07
2017-02-09T06:51:43.248Z,1033.03
2017-02-09T06:52:08.873Z,1033.05
2017-02-09T06:52:34.465Z,1033.06
2017-02-09T06:53:00.040Z,1033.08
2017-02-09T06:53:25.600Z,1033.07
2017-02-09T06:53:51.142Z,1033.09
2017-02-09T06:54:16.777Z,1033.11
2017-02-09T06:54:42.388Z,1033.05
2017-02-09T06:55:07.958Z,1033.07
2017-02-09T06:55:33.600Z,1033.05
2017-02-09T06:55:59.210Z,1033.09
2017-02-09T06:56:24.832Z,1033.11
2017-02-09T06:56:50.407Z,1033.12
2017-02-09T06:57:15.989Z,1033.11
2017-02-09T06:57:41.541Z,1033.04
2017-02-09T06:58:07.101Z,1033.09
2017-02-09T06:58:32.644Z,1033.1
2017-02-09T06:58:58.295Z,1033.05
2017-02-09T06:59:23.838Z,1033.07
2017-02-09T06:59:49.420Z,1033.04
2017-02-09T07:00:14.987Z,1033.08
2017-02-09T07:01:23.571Z,1033.1
2017-02-09T07:01:49.163Z,1033.1
2017-02-09T07:02:14.732Z,1033.11
2017-02-09T07:02:40.282Z,1033.1
2017-02-09T07:03:05.843Z,1033.14
2017-02-09T07:03:31.422Z,1033.13
2017-02-09T07:03:57.052Z,1033.11
2017-02-09T07:04:22.645Z,1033.13
2017-02-09T07:04:48.264Z,1033.1
2017-02-09T07:05:13.924Z,1033.1
2017-02-09T07:05:39.477Z,1033.12
2017-02-09T07:06:05.038Z,1033.1
2017-02-09T07:06:30.719Z,1033.13
2017-02-09T07:06:56.269Z,1033.12
2017-02-09T07:07:21.826Z,1033.14
2017-02-09T07:07:47.391Z,1033.1
2017-02-09T07:08:12.966Z,1033.12
2017-02-09T07:08:38.619Z,1033.11
2017-02-09T07:09:04.275Z,1033.09
2017-02-09T07:09:29.880Z,1033.08
2017-02-09T07:09:55.439Z,1033.1
2017-02-09T07:10:21.009Z,1033.08
2017-02-09T07:10:46.660Z,1033.09
2017-02-09T07:11:12.344Z,1033.07
2017-02-09T07:11:37.903Z,1033.1
2017-02-09T07:12:03.478Z,1033.03
2017-02-09T07:12:29.101Z,1033.13
2017-02-09T07:12:54.657Z,1033.08
2017-02-09T07:13:20.284Z,1033.22
2017-02-09T07:13:45.963Z,1033.15
2017-02-09T07:14:11.820Z,1033.16
2017-02-09T07:14:37.387Z,1033.12
2017-02-09T07:15:02.962Z,1033.08
2017-02-09T07:15:28.565Z,1033.1
2017-02-09T07:15:54.121Z,1033.1
2017-02-09T07:16:19.678Z,1033.11
2017-02-09T07:16:45.257Z,1033.16
2017-02-09T07:17:10.800Z,1033.11
2017-02-09T07:17:36.373Z,1033.11
2017-02-09T07:18:01.945Z,1033.1
2017-02-09T07:18:27.520Z,1033.12
2017-02-09T07:18:53.111Z,1033.11
2017-02-09T07:19:18.670Z,1033.14
2017-02-09T07:19:44.242Z,1033.17
2017-02-09T07:20:09.806Z,1033.1
2017-02-09T07:20:35.385Z,1033.11
2017-02-09T07:21:01.061Z,1033.1
2017-02-09T07:21:26.722Z,1033.08
2017-02-09T07:21:52.381Z,1033.1
2017-02-09T07:22:17.971Z,1033.14
2017-02-09T07:22:43.524Z,1033.13
2017-02-09T07:23:09.091Z,1033.13
2017-02-09T07:23:34.782Z,1033.14
2017-02-09T07:24:00.571Z,1033.13
2017-02-09T07:24:26.160Z,1033.18
2017-02-09T07:24:51.727Z,1033.17
2017-02-09T07:25:17.493Z,1033.19
2017-02-09T07:25:43.064Z,1033.21
2017-02-09T07:26:08.677Z,1033.14
2017-02-09T07:26:34.246Z,1033.18
2017-02-09T07:26:59.849Z,1033.19
2017-02-09T07:27:25.432Z,1033.13
2017-02-09T07:27:50.988Z,1033.14
2017-02-09T07:28:16.551Z,1033.16
2017-02-09T07:28:42.204Z,1033.15
2017-02-09T07:29:07.779Z,1033.2
2017-02-09T07:29:33.373Z,1033.15
2017-02-09T07:29:58.935Z,1033.16
2017-02-09T07:30:24.486Z,1033.18
2017-02-09T07:30:50.058Z,1033.15
2017-02-09T07:31:15.630Z,1033.16
2017-02-09T07:31:41.241Z,1033.2
2017-02-09T07:32:06.826Z,1033.17
2017-02-09T07:32:32.389Z,1033.12
2017-02-09T07:32:57.982Z,1033.15
2017-02-09T07:33:23.537Z,1033.14
2017-02-09T07:33:49.197Z,1033.17
2017-02-09T07:34:14.764Z,1033.16
2017-02-09T07:34:40.344Z,1033.15
2017-02-09T07:35:05.913Z,1033.14
2017-02-09T07:35:31.477Z,1033.16
2017-02-09T07:35:57.046Z,1033.16
2017-02-09T07:36:22.754Z,1033.16
2017-02-09T07:36:48.371Z,1033.18
2017-02-09T07:37:14.017Z,1033.14
2017-02-09T07:37:39.655Z,1033.14
2017-02-09T07:38:05.234Z,1033.12
2017-02-09T07:38:30.816Z,1033.15
2017-02-09T07:38:56.413Z,1033.12
2017-02-09T07:39:22.019Z,1033.12
2017-02-09T07:39:47.590Z,1033.12
2017-02-09T07:40:13.340Z,1033.17
2017-02-09T07:40:38.913Z,1033.13
2017-02-09T07:41:04.475Z,1033.16
2017-02-09T07:41:30.037Z,1033.13
2017-02-09T07:41:55.721Z,1033.15
2017-02-09T07:42:21.302Z,1033.17
2017-02-09T07:43:19.639Z,1033.16
2017-02-09T07:43:45.220Z,1033.15
2017-02-09T07:44:10.820Z,1033.15
2017-02-09T07:44:36.429Z,1033.11
2017-02-09T07:45:01.977Z,1033.14
2017-02-09T07:45:27.537Z,1033.16
2017-02-09T07:45:53.104Z,1033.1
2017-02-09T07:46:18.759Z,1033.14
2017-02-09T07:46:44.413Z,1033.13
2017-02-09T07:47:09.971Z,1033.2
2017-02-09T07:47:35.634Z,1033.17
2017-02-09T07:48:01.371Z,1033.15
2017-02-09T07:48:27.027Z,1033.14
2017-02-09T07:48:52.625Z,1033.14
2017-02-09T07:49:18.203Z,1033.1
2017-02-09T07:49:43.792Z,1033.1
2017-02-09T07:50:09.372Z,1033.13
2017-02-09T07:50:34.946Z,1033.15
2017-02-09T07:51:00.538Z,1033.17
2017-02-09T07:51:26.084Z,1033.13
2017-02-09T07:51:51.639Z,1033.12
2017-02-09T07:52:17.208Z,1033.12
2017-02-09T07:52:42.764Z,1033.12
2017-02-09T07:53:08.326Z,1033.12
2017-02-09T07:53:33.891Z,1033.16
2017-02-09T07:53:59.455Z,1033.1
2017-02-09T07:54:25.020Z,1033.15
2017-02-09T07:54:50.618Z,1033.1
2017-02-09T07:55:16.189Z,1033.14
2017-02-09T07:55:41.761Z,1033.13
2017-02-09T07:56:07.315Z,1033.1
2017-02-09T07:56:32.878Z,1033.09
2017-02-09T07:56:58.463Z,1033.11
2017-02-09T07:57:24.055Z,1033.1
2017-02-09T07:57:49.620Z,1033.09
2017-02-09T07:58:15.212Z,1033.07
2017-02-09T07:58:40.763Z,1033.08
2017-02-09T07:59:06.377Z,1033.06
2017-02-09T07:59:31.934Z,1033.07
2017-02-09T07:59:57.740Z,1033.07
2017-02-09T08:00:23.309Z,1033.06
2017-02-09T08:00:48.918Z,1033.06
2017-02-09T08:01:14.521Z,1033.06
2017-02-09T08:01:40.082Z,1033.1
2017-02-09T08:02:05.648Z,1033.06
2017-02-09T08:02:31.333Z,1033.07
2017-02-09T08:02:57.807Z,1033.09
2017-02-09T08:03:23.368Z,1033.07
2017-02-09T08:03:48.954Z,1033.1
2017-02-09T08:04:14.510Z,1033.04
2017-02-09T08:04:40.090Z,1033.1
2017-02-09T08:05:05.640Z,1033.04
2017-02-09T08:05:31.201Z,1033.11
2017-02-09T08:05:56.852Z,1033.09
2017-02-09T08:06:22.423Z,1033.1
2017-02-09T08:06:48.003Z,1033.06
2017-02-09T08:07:13.664Z,1033.11
2017-02-09T08:07:39.323Z,1033.15
2017-02-09T08:08:04.882Z,1033.11
2017-02-09T08:08:30.513Z,1033.13
2017-02-09T08:08:56.084Z,1033.13
2017-02-09T08:09:21.656Z,1033.13
2017-02-09T08:09:47.367Z,1033.11
2017-02-09T08:10:12.942Z,1033.13
2017-02-09T08:10:38.509Z,1033.09
2017-02-09T08:11:04.077Z,1033.11
2017-02-09T08:11:29.729Z,1033.16
2017-02-09T08:11:55.314Z,1033.16
2017-02-09T08:12:20.888Z,1033.15
2017-02-09T08:12:46.460Z,1033.14
2017-02-09T08:13:12.090Z,1033.1
2017-02-09T08:13:37.651Z,1033.18
2017-02-09T08:14:03.254Z,1033.1
2017-02-09T08:14:28.807Z,1033.1
2017-02-09T08:14:54.368Z,1033.11
2017-02-09T08:15:19.919Z,1033.08
2017-02-09T08:15:45.514Z,1033.06
2017-02-09T08:16:11.065Z,1033.12
2017-02-09T08:16:36.629Z,1033.08
2017-02-09T08:17:02.175Z,1033.05
2017-02-09T08:17:27.739Z,1033.11
2017-02-09T08:17:53.388Z,1033.09
2017-02-09T08:18:18.947Z,1033.1
2017-02-09T08:18:44.521Z,1033.08
2017-02-09T08:19:10.198Z,1033.07
2017-02-09T08:19:35.763Z,1033.1
2017-02-09T08:20:01.339Z,1033.11
2017-02-09T08:20:26.897Z,1033.08
2017-02-09T08:20:52.467Z,1033.08
2017-02-09T08:21:18.032Z,1033.07
2017-02-09T08:21:43.687Z,1033.08
2017-02-09T08:22:09.265Z,1033.05
2017-02-09T08:22:34.817Z,1033.08
2017-02-09T08:23:00.388Z,1033.1
2017-02-09T08:23:25.947Z,1033.07
2017-02-09T08:23:51.510Z,1033.07
2017-02-09T08:24:17.077Z,1033.07
2017-02-09T08:24:42.735Z,1033.09
2017-02-09T08:25:08.288Z,1033.06
2017-02-09T08:25:33.860Z,1033.05
2017-02-09T08:25:59.433Z,1033.06
2017-02-09T08:26:25.008Z,1033.08
2017-02-09T08:26:50.587Z,1033.09
2017-02-09T08:27:16.241Z,1033.06
2017-02-09T08:27:41.816Z,1033.1
2017-02-09T08:28:07.363Z,1033.1
2017-02-09T08:28:33.050Z,1033.06
2017-02-09T08:28:58.613Z,1033.06
2017-02-09T08:29:24.248Z,1033.08
2017-02-09T08:29:49.890Z,1033.08
2017-02-09T08:30:15.472Z,1033.08
2017-02-09T08:30:41.039Z,1033.07
2017-02-09T08:31:06.652Z,1033.08
2017-02-09T08:31:32.192Z,1033.08
2017-02-09T08:31:57.728Z,1033.09
2017-02-09T08:32:23.284Z,1033.07
2017-02-09T08:32:48.834Z,1033.06
2017-02-09T08:33:14.419Z,1033.05
2017-02-09T08:33:40.054Z,1033.05
2017-02-09T08:34:05.609Z,1033.1
2017-02-09T08:34:31.175Z,1033.1
2017-02-09T08:34:56.806Z,1033.1
2017-02-09T08:35:22.352Z,1033.07
2017-02-09T08:35:47.911Z,1033.14
2017-02-09T08:36:13.462Z,1033.11
2017-02-09T08:36:39.038Z,1033.14
2017-02-09T08:37:04.593Z,1033.12
2017-02-09T08:37:30.175Z,1033.18
2017-02-09T08:37:55.729Z,1033.13
2017-02-09T08:38:21.271Z,1033.18
2017-02-09T08:38:46.838Z,1033.08
2017-02-09T08:39:12.416Z,1033.15
2017-02-09T08:39:38.009Z,1033.11
2017-02-09T08:40:03.750Z,1033.14
2017-02-09T08:40:29.391Z,1033.14
2017-02-09T08:40:54.933Z,1033.18
2017-02-09T08:41:20.510Z,1033.15
2017-02-09T08:41:46.078Z,1033.22
2017-02-09T08:42:11.640Z,1033.18
2017-02-09T08:42:37.186Z,1033.17
2017-02-09T08:43:02.723Z,1033.18
2017-02-09T08:43:28.316Z,1033.18
2017-02-09T08:43:53.895Z,1033.19
2017-02-09T08:44:19.503Z,1033.21
2017-02-09T08:44:45.058Z,1033.2
2017-02-09T08:45:10.645Z,1033.2
2017-02-09T08:45:36.349Z,1033.21
2017-02-09T08:46:01.890Z,1033.24
2017-02-09T08:46:27.523Z,1033.2
2017-02-09T08:46:53.083Z,1033.2
2017-02-09T08:47:18.661Z,1033.18
2017-02-09T08:47:44.245Z,1033.2
2017-02-09T08:48:09.832Z,1033.18
2017-02-09T08:48:35.366Z,1033.23
2017-02-09T08:49:00.932Z,1033.2
2017-02-09T08:49:26.502Z,1033.18
2017-02-09T08:49:52.067Z,1033.16
2017-02-09T08:50:17.618Z,1033.17
2017-02-09T08:50:43.171Z,1033.12
2017-02-09T08:51:08.702Z,1033.13
2017-02-09T08:51:34.337Z,1033.1
2017-02-09T08:51:59.903Z,1033.17
2017-02-09T08:52:25.479Z,1033.16
2017-02-09T08:52:51.040Z,1033.11
2017-02-09T08:53:16.614Z,1033.13
2017-02-09T08:53:42.306Z,1033.12
2017-02-09T08:54:07.958Z,1033.13
2017-02-09T08:54:33.552Z,1033.1
2017-02-09T08:54:59.140Z,1033.11
2017-02-09T08:55:24.891Z,1033.14
2017-02-09T08:55:50.464Z,1033.12
2017-02-09T08:56:16.012Z,1033.1
2017-02-09T08:56:41.564Z,1033.15
2017-02-09T08:57:07.162Z,1033.06
2017-02-09T08:57:32.754Z,1033.12
2017-02-09T08:57:58.345Z,1033.09
2017-02-09T08:58:23.972Z,1033.09
2017-02-09T08:58:49.543Z,1033.07
2017-02-09T08:59:15.120Z,1033.14
2017-02-09T08:59:40.753Z,1033.1
2017-02-09T09:00:06.334Z,1033.09
2017-02-09T09:00:31.876Z,1033.12
2017-02-09T09:00:57.443Z,1033.16
2017-02-09T09:01:23.126Z,1033.16
2017-02-09T09:01:48.690Z,1033.15
2017-02-09T09:02:14.251Z,1033.11
2017-02-09T09:02:39.945Z,1033.11
2017-02-09T09:03:05.502Z,1033.13
2017-02-09T09:03:31.069Z,1033.14
2017-02-09T09:03:56.747Z,1033.1
2017-02-09T09:04:22.317Z,1033.14
2017-02-09T09:04:47.875Z,1033.1
2017-02-09T09:05:13.548Z,1033.09
2017-02-09T09:05:39.115Z,1033.11
2017-02-09T09:06:04.676Z,1033.11
2017-02-09T09:06:30.303Z,1033.1
2017-02-09T09:06:55.913Z,1033.07
2017-02-09T09:07:21.473Z,1033.05
2017-02-09T09:07:47.010Z,1033.09
2017-02-09T09:08:12.570Z,1033.09
2017-02-09T09:08:38.110Z,1033.07
2017-02-09T09:09:03.710Z,1033.07
2017-02-09T09:09:29.376Z,1033.08
2017-02-09T09:09:54.945Z,1033.05
2017-02-09T09:10:20.492Z,1033.04
2017-02-09T09:10:46.073Z,1033.08
2017-02-09T09:11:11.636Z,1033.06
2017-02-09T09:11:37.274Z,1033.08
2017-02-09T09:12:02.839Z,1033.02
2017-02-09T09:12:28.381Z,1033.03
2017-02-09T09:12:53.942Z,1033.09
2017-02-09T09:13:19.564Z,1033.06
2017-02-09T09:13:45.246Z,1033.05
2017-02-09T09:14:10.803Z,1033
2017-02-09T09:14:36.386Z,1033.01